Time;durP1;ratioP1;P1;durP2;ratioP2;P2;SDS_P1;SDS_P2;PMS_P1;PMS_P2;Temp;Humidity;BMP_temperature;BMP_pressure;BME280_temperature;BME280_humidity;BME280_pressure;Samples;Min_cycle;Max_cycle;Signal;HPM_P1;HPM_P2
2023/06/05 03:40:40;;;;;;;;;;;14.20;99.90;;;;;;4591063;19;19915;-23
2023/06/05 03:42:11;;;;;;;;;;;14.30;99.90;;;;;;4592346;19;19938;-20
2023/06/05 03:43:43;;;;;;;;;;;14.30;99.90;;;;;;4593357;19;19918;-22
2023/06/05 03:45:15;;;;;;;;;;;14.40;99.90;;;;;;4593036;19;20335;-22
2023/06/05 03:46:47;;;;;;;;;;;14.40;99.90;;;;;;4593516;19;20340;-25
2023/06/05 03:48:20;;;;;;;;;;;14.40;99.90;;;;;;4593374;19;20325;-25
2023/06/05 03:49:52;;;;;;;;;;;14.50;99.90;;;;;;4594563;19;19923;-25
2023/06/05 03:51:29;;;;;;;;;;;14.50;99.90;;;;;;4593995;19;19914;-24
2023/06/05 03:53:03;;;;;;;;;;;14.50;99.90;;;;;;4594549;19;19922;-22
2023/06/05 03:54:34;;;;;;;;;;;14.60;99.90;;;;;;4592725;19;19915;-27
2023/06/05 03:56:05;;;;;;;;;;;14.60;99.90;;;;;;4593718;19;19922;-22
2023/06/05 03:57:40;;;;;;;;;;;14.60;99.90;;;;;;4591920;19;19919;-23
2023/06/05 03:59:22;;;;;;;;;;;14.60;99.90;;;;;;4592851;19;20269;-25
2023/06/05 04:00:54;;;;;;;;;;;14.60;99.90;;;;;;4591239;19;19922;-24
2023/06/05 04:02:25;;;;;;;;;;;14.70;99.90;;;;;;4592085;19;20005;-20
2023/06/05 04:03:56;;;;;;;;;;;14.60;99.90;;;;;;4591706;19;19943;-23
2023/06/05 04:05:27;;;;;;;;;;;14.70;99.90;;;;;;4593041;19;19938;-22
2023/06/05 04:07:00;;;;;;;;;;;14.70;99.90;;;;;;4593799;19;19923;-23
2023/06/05 04:08:31;;;;;;;;;;;14.70;99.90;;;;;;4592962;19;19915;-25
2023/06/05 04:10:03;;;;;;;;;;;14.70;99.90;;;;;;4591068;19;19978;-22
2023/06/05 04:11:34;;;;;;;;;;;14.70;99.90;;;;;;4591974;19;19956;-23
2023/06/05 04:13:08;;;;;;;;;;;14.70;99.90;;;;;;4592688;19;19911;-23
2023/06/05 04:14:39;;;;;;;;;;;14.70;99.90;;;;;;4595333;19;19915;-22
2023/06/05 04:16:11;;;;;;;;;;;14.70;99.90;;;;;;4592726;19;19970;-22
2023/06/05 04:17:42;;;;;;;;;;;14.70;99.90;;;;;;4591775;19;20243;-26
2023/06/05 04:19:13;;;;;;;;;;;14.70;99.90;;;;;;4592282;19;19934;-25
2023/06/05 04:20:57;;;;;;;;;;;14.70;99.90;;;;;;4590542;19;19919;-25
2023/06/05 04:22:29;;;;;;;;;;;14.70;99.90;;;;;;4592128;19;20394;-24
2023/06/05 04:24:15;;;;;;;;;;;14.70;99.90;;;;;;4592207;19;19917;-22
2023/06/05 04:25:48;;;;;;;;;;;14.80;99.90;;;;;;4588906;19;19942;-22
2023/06/05 04:27:28;;;;;;;;;;;14.70;99.90;;;;;;4591627;19;19952;-22
2023/06/05 04:29:02;;;;;;;;;;;14.80;99.90;;;;;;4590672;19;19966;-23
2023/06/05 04:30:34;;;;;;;;;;;14.80;99.90;;;;;;4591695;19;19946;-26
2023/06/05 04:32:07;;;;;;;;;;;14.80;99.90;;;;;;4590869;19;19947;-22
2023/06/05 04:33:38;;;;;;;;;;;14.80;99.90;;;;;;4592175;19;19926;-23
2023/06/05 04:35:10;;;;;;;;;;;14.80;99.90;;;;;;4590715;19;20234;-23
2023/06/05 04:36:41;;;;;;;;;;;14.80;99.90;;;;;;4590836;19;19925;-28
2023/06/05 04:38:13;;;;;;;;;;;14.80;99.90;;;;;;4591911;19;19927;-23
2023/06/05 04:39:44;;;;;;;;;;;14.80;99.90;;;;;;4592564;19;20257;-24
2023/06/05 04:41:15;;;;;;;;;;;14.90;99.90;;;;;;4589095;19;20351;-24
2023/06/05 04:42:46;;;;;;;;;;;14.90;99.90;;;;;;4591328;19;19946;-22
2023/06/05 04:44:18;;;;;;;;;;;14.90;99.90;;;;;;4590431;19;19922;-22
2023/06/05 04:45:50;;;;;;;;;;;14.90;99.90;;;;;;4587794;19;19915;-22
2023/06/05 04:47:21;;;;;;;;;;;14.90;99.90;;;;;;4588994;19;19922;-23
2023/06/05 04:48:55;;;;;;;;;;;15.00;99.90;;;;;;4588609;19;20366;-23
2023/06/05 04:50:26;;;;;;;;;;;15.00;99.90;;;;;;4589124;19;20531;-23
2023/06/05 04:51:59;;;;;;;;;;;15.10;99.90;;;;;;4589418;19;19919;-24
2023/06/05 04:53:31;;;;;;;;;;;15.10;99.90;;;;;;4590971;19;20464;-24
2023/06/05 04:55:02;;;;;;;;;;;15.10;99.90;;;;;;4591361;19;20245;-21
2023/06/05 05:06:47;;;;;;;;;;;15.40;99.90;;;;;;4588935;19;19911;-26
2023/06/05 05:08:19;;;;;;;;;;;15.40;99.90;;;;;;4590888;19;19922;-23
2023/06/05 05:09:51;;;;;;;;;;;15.40;99.90;;;;;;4589243;19;19914;-24
2023/06/05 05:11:22;;;;;;;;;;;15.40;99.90;;;;;;4589624;19;19926;-28
2023/06/05 05:12:53;;;;;;;;;;;15.50;99.90;;;;;;4588503;19;19915;-26
2023/06/05 05:14:26;;;;;;;;;;;15.50;99.90;;;;;;4588492;19;19979;-24
2023/06/05 05:15:59;;;;;;;;;;;15.50;99.90;;;;;;4586746;19;19923;-23
2023/06/05 05:17:31;;;;;;;;;;;15.50;99.90;;;;;;4588807;19;19918;-25
2023/06/05 05:19:02;;;;;;;;;;;15.60;99.90;;;;;;4588206;19;19923;-24
2023/06/05 05:20:34;;;;;;;;;;;15.60;99.90;;;;;;4590766;19;20231;-26
2023/06/05 05:22:06;;;;;;;;;;;15.60;99.90;;;;;;4591386;19;20400;-25
2023/06/05 05:23:37;;;;;;;;;;;15.60;99.90;;;;;;4590280;19;20348;-23
2023/06/05 05:25:08;;;;;;;;;;;15.60;99.90;;;;;;4589161;19;19919;-25
2023/06/05 05:26:40;;;;;;;;;;;15.70;99.90;;;;;;4587938;19;19923;-24
2023/06/05 05:28:11;;;;;;;;;;;15.70;99.90;;;;;;4588640;19;19914;-28
2023/06/05 05:29:42;;;;;;;;;;;15.70;99.90;;;;;;4589532;19;19939;-25
2023/06/05 05:31:13;;;;;;;;;;;15.70;99.90;;;;;;4588909;19;19923;-25
2023/06/05 05:32:44;;;;;;;;;;;15.70;99.90;;;;;;4589283;19;19932;-26
2023/06/05 05:34:15;;;;;;;;;;;15.70;99.90;;;;;;4591988;19;19918;-27
2023/06/05 05:35:46;;;;;;;;;;;15.80;99.90;;;;;;4589909;19;19937;-26
2023/06/05 05:37:17;;;;;;;;;;;15.80;99.90;;;;;;4590018;19;19915;-27
2023/06/05 05:38:48;;;;;;;;;;;15.80;99.90;;;;;;4590298;19;19915;-25
2023/06/05 05:40:19;;;;;;;;;;;15.80;99.90;;;;;;4590807;19;19919;-27
2023/06/05 05:41:50;;;;;;;;;;;15.80;99.90;;;;;;4589463;19;19926;-22
2023/06/05 05:43:21;;;;;;;;;;;15.80;99.90;;;;;;4590606;19;19911;-27
2023/06/05 05:44:53;;;;;;;;;;;15.80;99.90;;;;;;4590136;19;20297;-25
2023/06/05 05:46:23;;;;;;;;;;;15.80;99.90;;;;;;4590033;19;19911;-24
2023/06/05 05:47:54;;;;;;;;;;;15.80;99.90;;;;;;4590607;19;19986;-26
2023/06/05 05:49:26;;;;;;;;;;;15.90;99.90;;;;;;4589430;19;19942;-24
2023/06/05 05:50:58;;;;;;;;;;;15.90;99.90;;;;;;4590867;19;19919;-23
2023/06/05 05:52:29;;;;;;;;;;;15.90;99.90;;;;;;4589574;19;20318;-25
2023/06/05 05:54:05;;;;;;;;;;;15.90;99.90;;;;;;4589662;19;19926;-24
2023/06/05 05:55:36;;;;;;;;;;;15.90;99.90;;;;;;4589461;19;19915;-22
2023/06/05 05:57:07;;;;;;;;;;;15.90;99.90;;;;;;4590470;19;20239;-23
2023/06/05 05:58:38;;;;;;;;;;;15.90;99.90;;;;;;4589265;19;19914;-23
2023/06/05 06:00:12;;;;;;;;;;;16.00;99.90;;;;;;4590957;19;19982;-23
2023/06/05 06:01:43;;;;;;;;;;;16.00;99.90;;;;;;4589112;19;19922;-23
2023/06/05 06:03:16;;;;;;;;;;;16.00;99.90;;;;;;4589946;19;19922;-29
2023/06/05 06:04:48;;;;;;;;;;;16.00;99.90;;;;;;4589069;19;19971;-24
2023/06/05 06:06:20;;;;;;;;;;;16.00;99.90;;;;;;4589375;19;19929;-23
2023/06/05 06:07:51;;;;;;;;;;;16.10;99.90;;;;;;4589147;19;19915;-24
2023/06/05 06:09:22;;;;;;;;;;;16.10;99.90;;;;;;4589273;19;19936;-25
2023/06/05 06:10:54;;;;;;;;;;;16.10;99.90;;;;;;4588678;19;19922;-25
2023/06/05 06:12:27;;;;;;;;;;;16.10;99.90;;;;;;4589308;19;19925;-23
2023/06/05 06:13:58;;;;;;;;;;;16.10;99.90;;;;;;4589954;19;19921;-28
2023/06/05 06:15:29;;;;;;;;;;;16.10;99.90;;;;;;4591114;19;20247;-24
2023/06/05 06:17:01;;;;;;;;;;;16.10;99.90;;;;;;4590649;19;19918;-23
2023/06/05 06:18:32;;;;;;;;;;;16.10;99.90;;;;;;4589313;19;19986;-23
2023/06/05 06:20:05;;;;;;;;;;;16.20;99.90;;;;;;4589350;19;19927;-22
2023/06/05 06:21:36;;;;;;;;;;;16.10;99.90;;;;;;4588211;19;19943;-26
2023/06/05 06:23:07;;;;;;;;;;;16.20;99.90;;;;;;4589519;19;20288;-26
2023/06/05 06:24:39;;;;;;;;;;;16.20;99.90;;;;;;4592029;19;20318;-26
2023/06/05 06:35:44;;;;;;;;;;;16.40;99.90;;;;;;4595321;19;19907;-24
2023/06/05 06:37:15;;;;;;;;;;;16.40;99.90;;;;;;4594571;19;19910;-26
2023/06/05 06:38:46;;;;;;;;;;;16.40;99.90;;;;;;4594495;19;19911;-24
2023/06/05 06:40:17;;;;;;;;;;;16.40;99.90;;;;;;4592752;19;19922;-23
2023/06/05 06:41:48;;;;;;;;;;;16.40;99.90;;;;;;4593401;19;19919;-23
2023/06/05 06:50:30;;;;;;;;;;;16.50;99.90;;;;;;4596367;19;19914;-24
2023/06/05 06:52:02;;;;;;;;;;;16.50;99.90;;;;;;4593765;19;19991;-24
2023/06/05 06:53:34;;;;;;;;;;;16.50;99.90;;;;;;4593933;19;19974;-25
2023/06/05 06:55:06;;;;;;;;;;;16.50;99.90;;;;;;4593668;19;19919;-27
2023/06/05 06:56:38;;;;;;;;;;;16.50;99.90;;;;;;4593819;19;19922;-30
2023/06/05 06:58:09;;;;;;;;;;;16.60;99.90;;;;;;4593181;19;19923;-22
2023/06/05 06:59:40;;;;;;;;;;;16.50;99.90;;;;;;4594600;19;19923;-24
2023/06/05 07:01:14;;;;;;;;;;;16.60;99.90;;;;;;4591491;19;19975;-27
2023/06/05 07:02:46;;;;;;;;;;;16.60;99.90;;;;;;4593874;19;19918;-28
2023/06/05 07:04:21;;;;;;;;;;;16.60;99.90;;;;;;4593150;19;19914;-27
2023/06/05 07:05:52;;;;;;;;;;;16.60;99.90;;;;;;4591894;19;19911;-24
2023/06/05 07:14:33;;;;;;;;;;;16.70;99.90;;;;;;4595669;19;19906;-23
2023/06/05 07:16:05;;;;;;;;;;;16.70;99.90;;;;;;4593061;19;19923;-26
2023/06/05 07:17:36;;;;;;;;;;;16.70;99.90;;;;;;4595700;19;19974;-28
2023/06/05 07:19:07;;;;;;;;;;;16.80;99.90;;;;;;4593896;19;20260;-26
2023/06/05 07:20:40;;;;;;;;;;;16.80;99.90;;;;;;4593403;19;19918;-27
2023/06/05 07:22:11;;;;;;;;;;;16.80;99.90;;;;;;4594032;19;19939;-23
2023/06/05 07:23:44;;;;;;;;;;;16.80;99.90;;;;;;4593688;19;19911;-22
2023/06/05 07:25:17;;;;;;;;;;;16.80;99.90;;;;;;4594092;19;20325;-25
2023/06/05 07:26:48;;;;;;;;;;;16.80;99.90;;;;;;4592221;19;19919;-23
2023/06/05 07:28:19;;;;;;;;;;;16.80;99.90;;;;;;4593766;19;19915;-24
2023/06/05 07:29:53;;;;;;;;;;;16.90;99.90;;;;;;4592966;19;19918;-23
2023/06/05 07:31:24;;;;;;;;;;;16.90;99.90;;;;;;4592459;19;20275;-24
2023/06/05 07:32:55;;;;;;;;;;;16.90;99.90;;;;;;4593450;19;19915;-22
2023/06/05 07:34:26;;;;;;;;;;;16.90;99.90;;;;;;4592945;19;19918;-24
2023/06/05 07:35:58;;;;;;;;;;;16.90;99.90;;;;;;4590176;19;20346;-23
2023/06/05 07:37:29;;;;;;;;;;;17.00;99.90;;;;;;4594766;19;20362;-24
2023/06/05 07:39:00;;;;;;;;;;;17.00;99.90;;;;;;4594099;19;19938;-23
2023/06/05 07:40:32;;;;;;;;;;;17.00;99.90;;;;;;4591053;19;20281;-26
2023/06/05 07:42:03;;;;;;;;;;;17.00;99.90;;;;;;4593023;19;19915;-22
2023/06/05 07:43:39;;;;;;;;;;;17.00;99.90;;;;;;4595351;19;19947;-23
2023/06/05 07:45:11;;;;;;;;;;;17.00;99.90;;;;;;4593280;19;19922;-27
2023/06/05 07:46:42;;;;;;;;;;;17.00;98.70;;;;;;4592010;19;19919;-23
2023/06/05 07:48:15;;;;;;;;;;;17.10;98.30;;;;;;4592003;19;19929;-23
2023/06/05 07:49:56;;;;;;;;;;;17.10;99.10;;;;;;4592141;19;20318;-23
2023/06/05 07:51:27;;;;;;;;;;;17.10;99.80;;;;;;4591943;19;19915;-23
2023/06/05 07:52:58;;;;;;;;;;;17.10;99.90;;;;;;4592213;19;19918;-23
2023/06/05 07:54:29;;;;;;;;;;;17.10;99.40;;;;;;4592723;19;19910;-26
2023/06/05 07:56:01;;;;;;;;;;;17.20;99.80;;;;;;4592608;19;19998;-23
2023/06/05 07:57:33;;;;;;;;;;;17.20;99.60;;;;;;4594692;19;19942;-24
2023/06/05 07:59:04;;;;;;;;;;;17.20;99.50;;;;;;4592805;19;20263;-25
2023/06/05 08:00:35;;;;;;;;;;;17.20;99.90;;;;;;4594209;19;20264;-23
2023/06/05 08:02:06;;;;;;;;;;;17.20;99.90;;;;;;4593613;19;19915;-23
2023/06/05 08:03:37;;;;;;;;;;;17.30;99.10;;;;;;4591992;19;19919;-24
2023/06/05 08:05:08;;;;;;;;;;;17.30;99.70;;;;;;4592701;19;19978;-25
2023/06/05 08:06:40;;;;;;;;;;;17.40;98.60;;;;;;4592673;19;20341;-24
2023/06/05 08:08:10;;;;;;;;;;;17.40;99.10;;;;;;4590775;19;20330;-26
2023/06/05 08:09:41;;;;;;;;;;;17.40;98.90;;;;;;4591318;19;19982;-24
2023/06/05 08:11:13;;;;;;;;;;;17.40;99.90;;;;;;4592297;19;19915;-24
2023/06/05 08:12:43;;;;;;;;;;;17.40;99.90;;;;;;4592957;19;20313;-27
2023/06/05 08:14:17;;;;;;;;;;;17.30;99.50;;;;;;4593387;19;19936;-29
2023/06/05 08:15:48;;;;;;;;;;;17.40;98.90;;;;;;4591093;19;19922;-24
2023/06/05 08:17:19;;;;;;;;;;;17.40;99.90;;;;;;4593764;19;19929;-24
2023/06/05 08:18:51;;;;;;;;;;;17.40;99.90;;;;;;4592592;19;20309;-23
2023/06/05 08:20:22;;;;;;;;;;;17.40;98.30;;;;;;4591809;19;19919;-29
2023/06/05 08:21:59;;;;;;;;;;;17.40;98.10;;;;;;4592502;19;20243;-23
2023/06/05 08:23:30;;;;;;;;;;;17.40;97.40;;;;;;4591164;19;20262;-25
2023/06/05 08:25:04;;;;;;;;;;;17.50;96.80;;;;;;4592144;19;20317;-24
2023/06/05 08:26:36;;;;;;;;;;;17.50;97.20;;;;;;4591212;19;20379;-27
2023/06/05 08:28:07;;;;;;;;;;;17.50;97.00;;;;;;4592111;19;19914;-24
2023/06/05 08:29:38;;;;;;;;;;;17.50;96.90;;;;;;4592062;19;20349;-24
2023/06/05 08:31:10;;;;;;;;;;;17.60;96.90;;;;;;4591871;19;19924;-23
2023/06/05 08:32:41;;;;;;;;;;;17.60;97.70;;;;;;4591639;19;19919;-24
2023/06/05 08:34:12;;;;;;;;;;;17.60;97.70;;;;;;4592104;19;20337;-23
2023/06/05 08:35:43;;;;;;;;;;;17.60;97.30;;;;;;4592230;19;19919;-26
2023/06/05 08:37:14;;;;;;;;;;;17.60;97.50;;;;;;4592523;19;20329;-25
2023/06/05 08:38:45;;;;;;;;;;;17.60;97.80;;;;;;4591825;19;19907;-25
2023/06/05 08:40:18;;;;;;;;;;;17.60;96.50;;;;;;4590455;19;19932;-26
2023/06/05 08:41:51;;;;;;;;;;;17.70;97.70;;;;;;4590099;19;19915;-23
2023/06/05 08:43:25;;;;;;;;;;;17.70;96.90;;;;;;4590701;19;19914;-26
2023/06/05 08:44:56;;;;;;;;;;;17.70;96.40;;;;;;4590885;19;19946;-22
2023/06/05 08:46:28;;;;;;;;;;;17.70;96.50;;;;;;4588945;19;19931;-24
2023/06/05 08:48:01;;;;;;;;;;;17.70;97.50;;;;;;4590106;19;19919;-27
2023/06/05 08:49:36;;;;;;;;;;;17.70;96.10;;;;;;4591053;19;19926;-26
2023/06/05 08:51:07;;;;;;;;;;;17.80;96.90;;;;;;4590457;19;19922;-30
2023/06/05 08:52:40;;;;;;;;;;;17.70;97.80;;;;;;4590224;19;19930;-24
2023/06/05 08:54:14;;;;;;;;;;;17.70;96.30;;;;;;4590799;19;19994;-24
2023/06/05 08:55:45;;;;;;;;;;;17.70;95.80;;;;;;4588862;19;19911;-24
2023/06/05 08:57:17;;;;;;;;;;;17.70;95.60;;;;;;4593214;19;20329;-27
2023/06/05 08:58:48;;;;;;;;;;;17.70;95.10;;;;;;4590679;19;19929;-25
2023/06/05 09:00:19;;;;;;;;;;;17.70;95.90;;;;;;4591340;19;19921;-24
2023/06/05 09:01:50;;;;;;;;;;;17.80;97.80;;;;;;4591753;19;19926;-24
2023/06/05 09:03:23;;;;;;;;;;;17.80;97.40;;;;;;4591581;19;19917;-25
2023/06/05 09:04:57;;;;;;;;;;;17.70;95.70;;;;;;4591634;19;19939;-30
2023/06/05 09:06:28;;;;;;;;;;;17.80;95.80;;;;;;4591786;19;19945;-23
2023/06/05 09:07:59;;;;;;;;;;;17.80;96.70;;;;;;4590093;19;19978;-23
2023/06/05 09:09:30;;;;;;;;;;;17.80;97.20;;;;;;4589667;19;19923;-27
2023/06/05 09:11:20;;;;;;;;;;;17.80;96.00;;;;;;4589294;19;19913;-27
2023/06/05 09:12:54;;;;;;;;;;;17.80;95.40;;;;;;4591465;19;19922;-25
2023/06/05 09:14:25;;;;;;;;;;;17.90;95.30;;;;;;4591056;19;19919;-24
2023/06/05 09:15:57;;;;;;;;;;;17.90;94.70;;;;;;4589881;19;19935;-26
2023/06/05 09:17:28;;;;;;;;;;;17.90;94.60;;;;;;4589540;19;19922;-24
2023/06/05 09:18:59;;;;;;;;;;;17.90;94.20;;;;;;4590217;19;20236;-26
2023/06/05 09:20:34;;;;;;;;;;;17.90;96.20;;;;;;4589420;19;19919;-24
2023/06/05 09:22:06;;;;;;;;;;;18.00;95.10;;;;;;4589460;19;19918;-24
2023/06/05 09:23:37;;;;;;;;;;;18.00;94.60;;;;;;4590070;19;19918;-25
2023/06/05 09:25:08;;;;;;;;;;;18.00;95.10;;;;;;4590994;19;20422;-28
2023/06/05 09:26:46;;;;;;;;;;;18.00;94.30;;;;;;4590771;19;19975;-24
2023/06/05 09:28:17;;;;;;;;;;;18.00;93.10;;;;;;4591089;19;19915;-27
2023/06/05 09:29:48;;;;;;;;;;;18.10;95.00;;;;;;4589696;19;19919;-24
2023/06/05 09:31:21;;;;;;;;;;;18.10;94.50;;;;;;4589785;19;19915;-26
2023/06/05 09:32:51;;;;;;;;;;;18.10;94.90;;;;;;4590405;19;19915;-24
2023/06/05 09:34:27;;;;;;;;;;;18.10;95.40;;;;;;4589450;19;19918;-26
2023/06/05 09:36:05;;;;;;;;;;;18.10;94.90;;;;;;4589453;19;19915;-24
2023/06/05 09:37:38;;;;;;;;;;;18.10;95.50;;;;;;4589854;19;19966;-24
2023/06/05 09:39:16;;;;;;;;;;;18.10;95.10;;;;;;4590026;19;20417;-26
2023/06/05 09:40:47;;;;;;;;;;;18.10;94.90;;;;;;4589690;19;19923;-24
2023/06/05 09:42:19;;;;;;;;;;;18.10;94.80;;;;;;4590033;19;19982;-23
2023/06/05 09:43:50;;;;;;;;;;;18.10;94.90;;;;;;4589481;19;20258;-25
2023/06/05 09:45:42;;;;;;;;;;;18.20;95.70;;;;;;4589663;19;19911;-28
2023/06/05 09:47:15;;;;;;;;;;;18.10;95.90;;;;;;4590699;19;19922;-25
2023/06/05 09:48:50;;;;;;;;;;;18.20;95.30;;;;;;4590166;19;19923;-27
2023/06/05 09:50:22;;;;;;;;;;;18.20;95.10;;;;;;4591544;19;19926;-23
2023/06/05 09:51:54;;;;;;;;;;;18.20;95.30;;;;;;4589050;19;20246;-26
2023/06/05 09:53:29;;;;;;;;;;;18.20;94.90;;;;;;4589122;19;19919;-28
2023/06/05 09:55:02;;;;;;;;;;;18.20;94.90;;;;;;4589540;19;19948;-27
2023/06/05 09:56:33;;;;;;;;;;;18.20;94.80;;;;;;4589739;19;19910;-23
2023/06/05 09:58:13;;;;;;;;;;;18.30;95.20;;;;;;4589041;19;19974;-28
2023/06/05 09:59:45;;;;;;;;;;;18.30;94.80;;;;;;4591445;19;19938;-27
2023/06/05 10:01:22;;;;;;;;;;;18.30;94.60;;;;;;4593106;19;19914;-23
2023/06/05 10:02:55;;;;;;;;;;;18.30;95.00;;;;;;4596247;19;19919;-23
2023/06/05 10:04:27;;;;;;;;;;;18.30;94.20;;;;;;4594821;19;19918;-23
2023/06/05 10:05:58;;;;;;;;;;;18.30;94.20;;;;;;4592496;19;19922;-25
2023/06/05 10:07:30;;;;;;;;;;;18.30;94.60;;;;;;4594785;19;20354;-24
2023/06/05 10:09:01;;;;;;;;;;;18.30;94.30;;;;;;4595868;19;20321;-25
2023/06/05 10:10:33;;;;;;;;;;;18.30;93.80;;;;;;4592660;19;20261;-23
2023/06/05 10:12:04;;;;;;;;;;;18.30;93.60;;;;;;4594714;19;19919;-23
2023/06/05 10:13:35;;;;;;;;;;;18.30;93.70;;;;;;4593846;19;19915;-28
2023/06/05 10:15:06;;;;;;;;;;;18.30;93.70;;;;;;4594098;19;19935;-27
2023/06/05 10:16:41;;;;;;;;;;;18.30;93.80;;;;;;4594322;19;19929;-29
2023/06/05 10:18:11;;;;;;;;;;;18.30;93.60;;;;;;4594675;19;19919;-27
2023/06/05 10:19:44;;;;;;;;;;;18.30;93.60;;;;;;4595132;19;19915;-25
2023/06/05 10:21:18;;;;;;;;;;;18.30;94.30;;;;;;4592599;19;19926;-28
2023/06/05 10:22:50;;;;;;;;;;;18.40;94.30;;;;;;4593343;19;20302;-22
2023/06/05 10:24:22;;;;;;;;;;;18.40;94.70;;;;;;4593353;19;20254;-30
2023/06/05 10:25:54;;;;;;;;;;;18.40;94.30;;;;;;4593690;19;19926;-26
2023/06/05 10:27:32;;;;;;;;;;;18.40;93.90;;;;;;4595191;19;19910;-28
2023/06/05 10:29:21;;;;;;;;;;;18.40;94.20;;;;;;4593487;19;19926;-23
2023/06/05 10:30:55;;;;;;;;;;;18.40;93.30;;;;;;4594343;19;19918;-23
2023/06/05 10:32:29;;;;;;;;;;;18.40;94.60;;;;;;4595134;19;19922;-25
2023/06/05 10:34:06;;;;;;;;;;;18.40;94.20;;;;;;4594198;19;19915;-24
2023/06/05 10:35:54;;;;;;;;;;;18.50;94.10;;;;;;4593933;19;19926;-24
2023/06/05 10:37:25;;;;;;;;;;;18.50;93.90;;;;;;4595625;19;19915;-24
2023/06/05 10:38:56;;;;;;;;;;;18.50;93.50;;;;;;4594338;19;19922;-27
2023/06/05 10:40:28;;;;;;;;;;;18.50;94.20;;;;;;4594251;19;19911;-29
2023/06/05 10:42:00;;;;;;;;;;;18.50;94.20;;;;;;4594244;19;19997;-23
2023/06/05 10:43:32;;;;;;;;;;;18.50;94.10;;;;;;4594105;19;19962;-24
2023/06/05 10:45:03;;;;;;;;;;;18.50;94.00;;;;;;4594609;19;20329;-25
2023/06/05 10:46:35;;;;;;;;;;;18.50;93.80;;;;;;4593822;19;20266;-28
2023/06/05 10:48:05;;;;;;;;;;;18.60;94.20;;;;;;4594355;19;19919;-28
2023/06/05 10:49:37;;;;;;;;;;;18.60;94.10;;;;;;4593573;19;19922;-25
2023/06/05 10:51:28;;;;;;;;;;;18.60;94.50;;;;;;4594391;19;19998;-29
2023/06/05 10:52:59;;;;;;;;;;;18.60;93.50;;;;;;4594915;19;19919;-26
2023/06/05 10:54:31;;;;;;;;;;;18.60;93.80;;;;;;4592728;19;19927;-23
2023/06/05 10:56:02;;;;;;;;;;;18.60;93.90;;;;;;4593003;19;20478;-23
2023/06/05 10:57:51;;;;;;;;;;;18.60;94.20;;;;;;4596355;19;19995;-28
2023/06/05 10:59:26;;;;;;;;;;;18.60;94.10;;;;;;4594579;19;19938;-25
2023/06/05 11:01:23;;;;;;;;;;;18.60;94.10;;;;;;4592416;19;20317;-30
2023/06/05 11:02:54;;;;;;;;;;;18.60;94.10;;;;;;4593725;19;19974;-22
2023/06/05 11:04:25;;;;;;;;;;;18.60;94.20;;;;;;4593794;19;20330;-27
2023/06/05 11:06:14;;;;;;;;;;;18.60;93.80;;;;;;4592610;19;20280;-27
2023/06/05 11:07:48;;;;;;;;;;;18.60;93.00;;;;;;4593184;19;19918;-24
2023/06/05 11:09:19;;;;;;;;;;;18.60;93.40;;;;;;4593305;19;19986;-23
2023/06/05 11:11:09;;;;;;;;;;;18.70;94.10;;;;;;4591129;19;19922;-27
2023/06/05 11:12:40;;;;;;;;;;;18.70;93.90;;;;;;4593528;19;20278;-23
2023/06/05 11:14:11;;;;;;;;;;;18.70;93.40;;;;;;4593533;19;19939;-24
2023/06/05 11:15:43;;;;;;;;;;;18.70;94.00;;;;;;4592375;19;19915;-23
2023/06/05 11:17:27;;;;;;;;;;;18.80;93.60;;;;;;4593833;19;19926;-23
2023/06/05 11:19:17;;;;;;;;;;;18.80;93.50;;;;;;4593284;19;19978;-25
2023/06/05 11:20:48;;;;;;;;;;;18.80;93.90;;;;;;4593126;19;19919;-24
2023/06/05 11:22:20;;;;;;;;;;;18.80;93.80;;;;;;4593846;19;19915;-24
2023/06/05 11:26:37;;;;;;;;;;;18.80;93.30;;;;;;4592747;19;20223;-25
2023/06/05 11:28:09;;;;;;;;;;;18.80;93.20;;;;;;4593952;19;19922;-24
2023/06/05 11:29:40;;;;;;;;;;;18.80;92.90;;;;;;4593211;19;19919;-28
2023/06/05 11:31:11;;;;;;;;;;;18.80;92.50;;;;;;4592148;19;19929;-25
2023/06/05 11:32:43;;;;;;;;;;;18.80;92.50;;;;;;4593819;19;20324;-24
2023/06/05 11:34:14;;;;;;;;;;;18.80;92.40;;;;;;4592242;19;19948;-27
2023/06/05 11:35:46;;;;;;;;;;;18.80;92.00;;;;;;4591957;19;20274;-23
2023/06/05 11:37:18;;;;;;;;;;;18.80;93.00;;;;;;4594156;19;19930;-27
2023/06/05 11:38:52;;;;;;;;;;;18.80;93.00;;;;;;4593316;19;19986;-25
2023/06/05 11:40:24;;;;;;;;;;;18.80;92.90;;;;;;4591292;19;21044;-24
2023/06/05 11:41:55;;;;;;;;;;;18.80;93.60;;;;;;4592402;19;19971;-24
2023/06/05 11:43:26;;;;;;;;;;;18.80;93.10;;;;;;4592023;19;19918;-24
2023/06/05 11:44:57;;;;;;;;;;;18.80;93.00;;;;;;4593434;19;19925;-25
2023/06/05 11:46:36;;;;;;;;;;;18.80;92.90;;;;;;4592458;19;19915;-27
2023/06/05 11:48:08;;;;;;;;;;;18.80;92.50;;;;;;4591831;19;19919;-25
2023/06/05 11:49:39;;;;;;;;;;;18.80;92.40;;;;;;4592188;19;19918;-23
2023/06/05 11:51:11;;;;;;;;;;;18.80;92.50;;;;;;4594103;19;19935;-25
2023/06/05 11:52:42;;;;;;;;;;;18.90;93.10;;;;;;4592362;19;19911;-24
2023/06/05 11:54:23;;;;;;;;;;;18.90;92.20;;;;;;4592738;19;19918;-24
2023/06/05 11:56:06;;;;;;;;;;;18.90;92.70;;;;;;4591490;19;19914;-27
2023/06/05 11:57:43;;;;;;;;;;;18.90;92.70;;;;;;4593783;19;19939;-26
2023/06/05 11:59:19;;;;;;;;;;;18.90;91.90;;;;;;4592816;19;19915;-23
2023/06/05 12:00:51;;;;;;;;;;;19.00;91.80;;;;;;4590819;19;19925;-28
2023/06/05 12:02:22;;;;;;;;;;;19.00;92.30;;;;;;4591655;19;19910;-23
2023/06/05 12:04:03;;;;;;;;;;;19.00;92.50;;;;;;4592481;19;19918;-25
2023/06/05 12:05:35;;;;;;;;;;;19.00;92.40;;;;;;4591465;19;19915;-24
2023/06/05 12:07:06;;;;;;;;;;;19.00;92.70;;;;;;4592392;19;19910;-25
2023/06/05 12:08:38;;;;;;;;;;;19.00;92.10;;;;;;4592523;19;19914;-24
2023/06/05 12:10:12;;;;;;;;;;;19.10;92.40;;;;;;4591178;19;19923;-23
2023/06/05 12:11:44;;;;;;;;;;;19.10;92.20;;;;;;4592348;19;19911;-24
2023/06/05 12:13:15;;;;;;;;;;;19.10;91.90;;;;;;4592448;19;19911;-27
2023/06/05 12:14:49;;;;;;;;;;;19.10;92.10;;;;;;4591383;19;20345;-24
2023/06/05 12:16:34;;;;;;;;;;;19.10;92.10;;;;;;4592914;19;19932;-26
2023/06/05 12:18:05;;;;;;;;;;;19.10;92.20;;;;;;4593523;19;19915;-25
2023/06/05 12:19:36;;;;;;;;;;;19.10;92.40;;;;;;4592444;19;19915;-28
2023/06/05 12:21:08;;;;;;;;;;;19.10;92.30;;;;;;4592107;19;20380;-23
2023/06/05 12:22:39;;;;;;;;;;;19.20;93.00;;;;;;4589787;19;19923;-24
2023/06/05 12:24:12;;;;;;;;;;;19.20;92.00;;;;;;4591045;19;19915;-23
2023/06/05 12:25:43;;;;;;;;;;;19.20;91.80;;;;;;4591796;19;20272;-24
2023/06/05 12:27:14;;;;;;;;;;;19.20;91.40;;;;;;4593895;19;19921;-24
2023/06/05 12:28:46;;;;;;;;;;;19.20;91.10;;;;;;4592696;19;20019;-25
2023/06/05 12:30:19;;;;;;;;;;;19.20;91.70;;;;;;4592277;19;20326;-25
2023/06/05 12:31:51;;;;;;;;;;;19.20;91.80;;;;;;4592573;19;20329;-23
2023/06/05 12:33:24;;;;;;;;;;;19.20;91.70;;;;;;4591693;19;19950;-24
2023/06/05 12:34:56;;;;;;;;;;;19.20;92.30;;;;;;4592102;19;20255;-23
2023/06/05 12:36:28;;;;;;;;;;;19.20;91.90;;;;;;4592083;19;19955;-27
2023/06/05 12:38:00;;;;;;;;;;;19.20;92.50;;;;;;4592368;19;20261;-23
2023/06/05 12:39:31;;;;;;;;;;;19.20;92.10;;;;;;4592112;19;19926;-29
2023/06/05 12:41:02;;;;;;;;;;;19.20;92.30;;;;;;4591601;19;19923;-24
2023/06/05 12:42:37;;;;;;;;;;;19.30;92.90;;;;;;4591857;19;19911;-28
2023/06/05 12:44:09;;;;;;;;;;;19.30;92.70;;;;;;4592018;19;19919;-28
2023/06/05 12:45:39;;;;;;;;;;;19.30;92.70;;;;;;4592431;19;20332;-23
2023/06/05 12:47:11;;;;;;;;;;;19.30;91.10;;;;;;4592732;19;19950;-24
2023/06/05 12:48:43;;;;;;;;;;;19.30;91.50;;;;;;4591758;19;20333;-27
2023/06/05 12:50:15;;;;;;;;;;;19.30;92.10;;;;;;4591943;19;19914;-24
2023/06/05 12:51:47;;;;;;;;;;;19.30;91.90;;;;;;4589512;19;19941;-24
2023/06/05 12:53:18;;;;;;;;;;;19.40;91.10;;;;;;4590482;19;19921;-24
2023/06/05 12:54:49;;;;;;;;;;;19.30;91.70;;;;;;4591650;19;19910;-27
2023/06/05 12:56:28;;;;;;;;;;;19.40;90.60;;;;;;4592518;19;19919;-27
2023/06/05 12:57:59;;;;;;;;;;;19.40;91.70;;;;;;4592476;19;19917;-24
2023/06/05 12:59:30;;;;;;;;;;;19.40;91.70;;;;;;4591824;19;19915;-27
2023/06/05 13:01:02;;;;;;;;;;;19.40;91.60;;;;;;4591403;19;19915;-25
2023/06/05 13:02:36;;;;;;;;;;;19.30;91.10;;;;;;4591936;19;20269;-26
2023/06/05 13:04:07;;;;;;;;;;;19.40;91.50;;;;;;4592675;19;19926;-25
2023/06/05 13:05:39;;;;;;;;;;;19.40;90.60;;;;;;4591333;19;19923;-24
2023/06/05 13:07:11;;;;;;;;;;;19.40;91.60;;;;;;4592018;19;19914;-24
2023/06/05 13:08:42;;;;;;;;;;;19.40;91.90;;;;;;4592157;19;19929;-24
2023/06/05 13:10:13;;;;;;;;;;;19.40;91.30;;;;;;4591699;19;20283;-28
2023/06/05 13:11:44;;;;;;;;;;;19.50;91.00;;;;;;4592191;19;19915;-27
2023/06/05 13:13:16;;;;;;;;;;;19.50;94.00;;;;;;4591875;19;19974;-25
2023/06/05 13:14:48;;;;;;;;;;;19.60;93.50;;;;;;4592087;19;19931;-24
2023/06/05 13:16:19;;;;;;;;;;;19.60;95.20;;;;;;4591943;19;19911;-24